sensor_id;sensor_type;location;lat;lon;timestamp;temperature;humidity
74822;DHT22;63353;48.702;8.884;2024-01-27T00:00:08;0.50;99.90
74822;DHT22;63353;48.702;8.884;2024-01-27T00:02:35;0.40;99.90
74822;DHT22;63353;48.702;8.884;2024-01-27T00:05:00;0.40;99.90
74822;DHT22;63353;48.702;8.884;2024-01-27T00:07:26;0.30;99.90
74822;DHT22;63353;48.702;8.884;2024-01-27T00:09:55;0.20;99.90
74822;DHT22;63353;48.702;8.884;2024-01-27T00:12:21;0.20;99.90
74822;DHT22;63353;48.702;8.884;2024-01-27T00:14:47;0.10;99.90
74822;DHT22;63353;48.702;8.884;2024-01-27T00:17:13;-0.10;99.90
74822;DHT22;63353;48.702;8.884;2024-01-27T00:19:38;-0.20;99.90
74822;DHT22;63353;48.702;8.884;2024-01-27T00:22:04;-0.30;99.90
74822;DHT22;63353;48.702;8.884;2024-01-27T00:24:30;-0.30;99.90
74822;DHT22;63353;48.702;8.884;2024-01-27T00:26:56;-0.40;99.90
74822;DHT22;63353;48.702;8.884;2024-01-27T00:29:22;-0.40;99.90
74822;DHT22;63353;48.702;8.884;2024-01-27T00:31:48;-0.40;99.90
74822;DHT22;63353;48.702;8.884;2024-01-27T00:34:14;-0.50;99.90
74822;DHT22;63353;48.702;8.884;2024-01-27T00:36:40;-0.60;99.90
74822;DHT22;63353;48.702;8.884;2024-01-27T00:39:08;-0.60;99.90
74822;DHT22;63353;48.702;8.884;2024-01-27T00:41:34;-0.70;99.90
74822;DHT22;63353;48.702;8.884;2024-01-27T00:43:59;-0.80;99.90
74822;DHT22;63353;48.702;8.884;2024-01-27T00:46:25;-0.70;99.90
74822;DHT22;63353;48.702;8.884;2024-01-27T00:48:51;-0.50;99.90
74822;DHT22;63353;48.702;8.884;2024-01-27T00:51:16;-0.40;99.90
74822;DHT22;63353;48.702;8.884;2024-01-27T00:53:42;-0.40;99.90
74822;DHT22;63353;48.702;8.884;2024-01-27T00:56:09;-0.50;99.90
74822;DHT22;63353;48.702;8.884;2024-01-27T00:58:34;-0.60;99.90
74822;DHT22;63353;48.702;8.884;2024-01-27T01:01:00;-0.60;99.90
74822;DHT22;63353;48.702;8.884;2024-01-27T01:03:26;-0.60;99.90
74822;DHT22;63353;48.702;8.884;2024-01-27T01:05:52;-0.70;99.90
74822;DHT22;63353;48.702;8.884;2024-01-27T01:08:17;-0.80;99.90
74822;DHT22;63353;48.702;8.884;2024-01-27T01:10:44;-0.80;99.90
74822;DHT22;63353;48.702;8.884;2024-01-27T01:13:10;-0.70;99.90
74822;DHT22;63353;48.702;8.884;2024-01-27T01:15:36;-0.60;99.90
74822;DHT22;63353;48.702;8.884;2024-01-27T01:18:02;-0.50;99.90
74822;DHT22;63353;48.702;8.884;2024-01-27T01:20:29;-0.60;99.90
74822;DHT22;63353;48.702;8.884;2024-01-27T01:22:55;-0.60;99.90
74822;DHT22;63353;48.702;8.884;2024-01-27T01:25:21;-0.70;99.90
74822;DHT22;63353;48.702;8.884;2024-01-27T01:27:47;-0.70;99.90
74822;DHT22;63353;48.702;8.884;2024-01-27T01:30:15;-0.70;99.90
74822;DHT22;63353;48.702;8.884;2024-01-27T01:32:41;-0.80;99.90
74822;DHT22;63353;48.702;8.884;2024-01-27T01:35:06;-0.70;99.90
74822;DHT22;63353;48.702;8.884;2024-01-27T01:37:32;-0.60;99.90
74822;DHT22;63353;48.702;8.884;2024-01-27T01:39:58;-0.50;99.90
74822;DHT22;63353;48.702;8.884;2024-01-27T01:42:25;-0.60;99.90
74822;DHT22;63353;48.702;8.884;2024-01-27T01:44:51;-0.60;99.90
74822;DHT22;63353;48.702;8.884;2024-01-27T01:47:18;-0.70;99.90
74822;DHT22;63353;48.702;8.884;2024-01-27T01:49:46;-0.70;99.90
74822;DHT22;63353;48.702;8.884;2024-01-27T01:52:13;-0.70;99.90
74822;DHT22;63353;48.702;8.884;2024-01-27T01:54:47;-0.80;99.90
74822;DHT22;63353;48.702;8.884;2024-01-27T01:57:13;-0.80;99.90
74822;DHT22;63353;48.702;8.884;2024-01-27T01:59:39;-0.80;99.90
74822;DHT22;63353;48.702;8.884;2024-01-27T02:02:06;-0.70;99.90
74822;DHT22;63353;48.702;8.884;2024-01-27T02:04:44;-0.70;99.90
74822;DHT22;63353;48.702;8.884;2024-01-27T02:07:11;-0.90;99.90
74822;DHT22;63353;48.702;8.884;2024-01-27T02:09:37;-0.90;99.90
74822;DHT22;63353;48.702;8.884;2024-01-27T02:12:03;-1.00;99.90
74822;DHT22;63353;48.702;8.884;2024-01-27T02:14:29;-1.00;99.90
74822;DHT22;63353;48.702;8.884;2024-01-27T02:16:56;-1.10;99.90
74822;DHT22;63353;48.702;8.884;2024-01-27T02:19:21;-1.10;99.90
74822;DHT22;63353;48.702;8.884;2024-01-27T02:21:48;-1.00;99.90
74822;DHT22;63353;48.702;8.884;2024-01-27T02:24:14;-1.00;99.90
74822;DHT22;63353;48.702;8.884;2024-01-27T02:26:41;-0.90;99.90
74822;DHT22;63353;48.702;8.884;2024-01-27T02:29:06;-0.90;99.90
74822;DHT22;63353;48.702;8.884;2024-01-27T02:31:32;-0.90;99.90
74822;DHT22;63353;48.702;8.884;2024-01-27T02:33:57;-1.00;99.90
74822;DHT22;63353;48.702;8.884;2024-01-27T02:36:23;-1.00;99.90
74822;DHT22;63353;48.702;8.884;2024-01-27T02:38:50;-1.10;99.90
74822;DHT22;63353;48.702;8.884;2024-01-27T02:41:17;-1.10;99.90
74822;DHT22;63353;48.702;8.884;2024-01-27T02:43:42;-1.10;99.90
74822;DHT22;63353;48.702;8.884;2024-01-27T02:46:11;-1.20;99.90
74822;DHT22;63353;48.702;8.884;2024-01-27T02:48:40;-1.20;99.90
74822;DHT22;63353;48.702;8.884;2024-01-27T02:51:06;-1.20;99.90
74822;DHT22;63353;48.702;8.884;2024-01-27T02:53:31;-1.20;99.90
74822;DHT22;63353;48.702;8.884;2024-01-27T02:55:57;-1.30;99.90
74822;DHT22;63353;48.702;8.884;2024-01-27T02:58:22;-1.30;99.90
74822;DHT22;63353;48.702;8.884;2024-01-27T03:00:48;-1.40;99.90
74822;DHT22;63353;48.702;8.884;2024-01-27T03:03:14;-1.60;99.90
74822;DHT22;63353;48.702;8.884;2024-01-27T03:05:40;-1.70;99.90
74822;DHT22;63353;48.702;8.884;2024-01-27T03:08:06;-1.70;99.90
74822;DHT22;63353;48.702;8.884;2024-01-27T03:10:32;-1.80;99.90
74822;DHT22;63353;48.702;8.884;2024-01-27T03:12:58;-1.80;99.90
74822;DHT22;63353;48.702;8.884;2024-01-27T03:15:24;-1.70;99.90
74822;DHT22;63353;48.702;8.884;2024-01-27T03:17:49;-1.80;99.90
74822;DHT22;63353;48.702;8.884;2024-01-27T03:20:15;-1.80;99.90
74822;DHT22;63353;48.702;8.884;2024-01-27T03:22:40;-1.90;99.90
74822;DHT22;63353;48.702;8.884;2024-01-27T03:25:09;-1.90;99.90
74822;DHT22;63353;48.702;8.884;2024-01-27T03:27:36;-2.00;99.90
74822;DHT22;63353;48.702;8.884;2024-01-27T03:30:02;-2.10;99.90
74822;DHT22;63353;48.702;8.884;2024-01-27T03:32:29;-2.20;99.90
74822;DHT22;63353;48.702;8.884;2024-01-27T03:35:00;-2.20;99.90
74822;DHT22;63353;48.702;8.884;2024-01-27T03:37:26;-2.30;99.90
74822;DHT22;63353;48.702;8.884;2024-01-27T03:39:51;-2.30;99.90
74822;DHT22;63353;48.702;8.884;2024-01-27T03:42:17;-2.30;99.90
74822;DHT22;63353;48.702;8.884;2024-01-27T03:44:42;-2.30;99.90
74822;DHT22;63353;48.702;8.884;2024-01-27T03:47:08;-2.40;99.90
74822;DHT22;63353;48.702;8.884;2024-01-27T03:49:35;-2.40;99.90
74822;DHT22;63353;48.702;8.884;2024-01-27T03:52:00;-2.40;99.90
74822;DHT22;63353;48.702;8.884;2024-01-27T03:54:26;-2.50;99.90
74822;DHT22;63353;48.702;8.884;2024-01-27T03:56:51;-2.50;99.90
74822;DHT22;63353;48.702;8.884;2024-01-27T03:59:17;-2.60;99.90
74822;DHT22;63353;48.702;8.884;2024-01-27T04:01:43;-2.70;99.90
74822;DHT22;63353;48.702;8.884;2024-01-27T04:04:08;-2.70;99.90
74822;DHT22;63353;48.702;8.884;2024-01-27T04:06:41;-2.70;99.90
74822;DHT22;63353;48.702;8.884;2024-01-27T04:09:08;-2.70;99.90
74822;DHT22;63353;48.702;8.884;2024-01-27T04:11:37;-2.60;99.90
74822;DHT22;63353;48.702;8.884;2024-01-27T04:14:04;-2.50;99.90
74822;DHT22;63353;48.702;8.884;2024-01-27T04:16:32;-2.50;99.90
74822;DHT22;63353;48.702;8.884;2024-01-27T04:18:57;-2.50;99.90
74822;DHT22;63353;48.702;8.884;2024-01-27T04:21:23;-2.50;99.90
74822;DHT22;63353;48.702;8.884;2024-01-27T04:23:49;-2.50;99.90
74822;DHT22;63353;48.702;8.884;2024-01-27T04:26:17;-2.60;99.90
74822;DHT22;63353;48.702;8.884;2024-01-27T04:28:42;-2.60;99.90
74822;DHT22;63353;48.702;8.884;2024-01-27T04:31:08;-2.60;99.90
74822;DHT22;63353;48.702;8.884;2024-01-27T04:33:34;-2.50;99.90
74822;DHT22;63353;48.702;8.884;2024-01-27T04:35:59;-2.50;99.90
74822;DHT22;63353;48.702;8.884;2024-01-27T04:38:25;-2.40;99.90
74822;DHT22;63353;48.702;8.884;2024-01-27T04:40:52;-2.30;99.90
74822;DHT22;63353;48.702;8.884;2024-01-27T04:43:18;-2.40;99.90
74822;DHT22;63353;48.702;8.884;2024-01-27T04:45:47;-2.20;99.90
74822;DHT22;63353;48.702;8.884;2024-01-27T04:48:14;-2.20;99.90
74822;DHT22;63353;48.702;8.884;2024-01-27T04:50:39;-2.20;99.90
74822;DHT22;63353;48.702;8.884;2024-01-27T04:53:06;-2.20;99.90
74822;DHT22;63353;48.702;8.884;2024-01-27T04:55:32;-2.10;99.90
74822;DHT22;63353;48.702;8.884;2024-01-27T04:57:58;-2.20;99.90
74822;DHT22;63353;48.702;8.884;2024-01-27T05:00:26;-2.10;99.90
74822;DHT22;63353;48.702;8.884;2024-01-27T05:02:53;-2.10;99.90
74822;DHT22;63353;48.702;8.884;2024-01-27T05:05:19;-2.10;99.90
74822;DHT22;63353;48.702;8.884;2024-01-27T05:07:45;-2.10;99.90
74822;DHT22;63353;48.702;8.884;2024-01-27T05:10:15;-2.10;99.90
74822;DHT22;63353;48.702;8.884;2024-01-27T05:12:41;-2.20;99.90
74822;DHT22;63353;48.702;8.884;2024-01-27T05:15:07;-2.20;99.90
74822;DHT22;63353;48.702;8.884;2024-01-27T05:17:33;-2.20;99.90
74822;DHT22;63353;48.702;8.884;2024-01-27T05:19:59;-2.20;99.90
74822;DHT22;63353;48.702;8.884;2024-01-27T05:22:25;-2.20;99.90
74822;DHT22;63353;48.702;8.884;2024-01-27T05:24:51;-2.20;99.90
74822;DHT22;63353;48.702;8.884;2024-01-27T05:27:16;-2.20;99.90
74822;DHT22;63353;48.702;8.884;2024-01-27T05:29:42;-2.30;99.90
74822;DHT22;63353;48.702;8.884;2024-01-27T05:32:08;-2.30;99.90
74822;DHT22;63353;48.702;8.884;2024-01-27T05:34:34;-2.40;99.90
74822;DHT22;63353;48.702;8.884;2024-01-27T05:37:00;-2.40;99.90
74822;DHT22;63353;48.702;8.884;2024-01-27T05:39:26;-2.50;99.90
74822;DHT22;63353;48.702;8.884;2024-01-27T05:41:54;-2.40;99.90
74822;DHT22;63353;48.702;8.884;2024-01-27T05:44:20;-2.40;99.90
74822;DHT22;63353;48.702;8.884;2024-01-27T05:46:47;-2.40;99.90
74822;DHT22;63353;48.702;8.884;2024-01-27T05:49:12;-2.40;99.90
74822;DHT22;63353;48.702;8.884;2024-01-27T05:51:38;-2.40;99.90
74822;DHT22;63353;48.702;8.884;2024-01-27T05:54:04;-2.40;99.90
74822;DHT22;63353;48.702;8.884;2024-01-27T05:56:29;-2.40;99.90
74822;DHT22;63353;48.702;8.884;2024-01-27T05:58:55;-2.40;99.90
74822;DHT22;63353;48.702;8.884;2024-01-27T06:01:21;-2.40;99.90
74822;DHT22;63353;48.702;8.884;2024-01-27T06:03:46;-2.40;99.90
74822;DHT22;63353;48.702;8.884;2024-01-27T06:06:12;-2.50;99.90
74822;DHT22;63353;48.702;8.884;2024-01-27T06:08:38;-2.50;99.90
74822;DHT22;63353;48.702;8.884;2024-01-27T06:11:04;-2.50;99.90
74822;DHT22;63353;48.702;8.884;2024-01-27T06:13:30;-2.50;99.90
74822;DHT22;63353;48.702;8.884;2024-01-27T06:15:55;-2.60;99.90
74822;DHT22;63353;48.702;8.884;2024-01-27T06:18:21;-2.50;99.90
74822;DHT22;63353;48.702;8.884;2024-01-27T06:20:47;-2.50;99.90
74822;DHT22;63353;48.702;8.884;2024-01-27T06:23:13;-2.40;99.90
74822;DHT22;63353;48.702;8.884;2024-01-27T06:25:38;-2.40;99.90
74822;DHT22;63353;48.702;8.884;2024-01-27T06:28:05;-2.30;99.90
74822;DHT22;63353;48.702;8.884;2024-01-27T06:30:31;-2.20;99.90
74822;DHT22;63353;48.702;8.884;2024-01-27T06:32:56;-2.20;99.90
74822;DHT22;63353;48.702;8.884;2024-01-27T06:35:22;-2.30;99.90
74822;DHT22;63353;48.702;8.884;2024-01-27T06:37:47;-2.30;99.90
74822;DHT22;63353;48.702;8.884;2024-01-27T06:40:13;-2.30;99.90
74822;DHT22;63353;48.702;8.884;2024-01-27T06:42:39;-2.30;99.90
74822;DHT22;63353;48.702;8.884;2024-01-27T06:45:05;-2.40;99.90
74822;DHT22;63353;48.702;8.884;2024-01-27T06:47:31;-2.40;99.90
74822;DHT22;63353;48.702;8.884;2024-01-27T06:49:56;-2.40;99.90
74822;DHT22;63353;48.702;8.884;2024-01-27T06:52:23;-2.40;99.90
74822;DHT22;63353;48.702;8.884;2024-01-27T06:54:49;-2.40;99.90
74822;DHT22;63353;48.702;8.884;2024-01-27T06:59:46;-2.50;99.90
74822;DHT22;63353;48.702;8.884;2024-01-27T07:02:13;-2.50;99.90
74822;DHT22;63353;48.702;8.884;2024-01-27T07:04:39;-2.50;99.90
74822;DHT22;63353;48.702;8.884;2024-01-27T07:07:05;-2.60;99.90
74822;DHT22;63353;48.702;8.884;2024-01-27T07:09:31;-2.70;99.90
74822;DHT22;63353;48.702;8.884;2024-01-27T07:11:56;-2.70;99.90
74822;DHT22;63353;48.702;8.884;2024-01-27T07:14:22;-2.80;99.90
74822;DHT22;63353;48.702;8.884;2024-01-27T07:16:48;-2.80;99.90
74822;DHT22;63353;48.702;8.884;2024-01-27T07:19:14;-2.90;99.90
74822;DHT22;63353;48.702;8.884;2024-01-27T07:21:41;-2.90;99.90
74822;DHT22;63353;48.702;8.884;2024-01-27T07:24:08;-3.00;99.90
74822;DHT22;63353;48.702;8.884;2024-01-27T07:26:34;-3.00;99.90
74822;DHT22;63353;48.702;8.884;2024-01-27T07:29:00;-3.00;99.90
74822;DHT22;63353;48.702;8.884;2024-01-27T07:31:25;-3.00;99.90
74822;DHT22;63353;48.702;8.884;2024-01-27T07:33:52;-2.90;99.90
74822;DHT22;63353;48.702;8.884;2024-01-27T07:36:17;-2.90;99.90
74822;DHT22;63353;48.702;8.884;2024-01-27T07:38:43;-2.80;99.90
74822;DHT22;63353;48.702;8.884;2024-01-27T07:41:08;-2.80;99.90
74822;DHT22;63353;48.702;8.884;2024-01-27T07:43:34;-2.70;99.90
74822;DHT22;63353;48.702;8.884;2024-01-27T07:46:00;-2.60;99.90
74822;DHT22;63353;48.702;8.884;2024-01-27T07:48:26;-2.50;99.90
74822;DHT22;63353;48.702;8.884;2024-01-27T07:50:52;-2.30;99.90
74822;DHT22;63353;48.702;8.884;2024-01-27T07:53:17;-2.20;99.90
74822;DHT22;63353;48.702;8.884;2024-01-27T07:55:43;-2.10;99.90
74822;DHT22;63353;48.702;8.884;2024-01-27T07:58:09;-2.00;99.90
74822;DHT22;63353;48.702;8.884;2024-01-27T08:00:35;-1.80;99.90
74822;DHT22;63353;48.702;8.884;2024-01-27T08:03:00;-1.70;99.90
74822;DHT22;63353;48.702;8.884;2024-01-27T08:05:26;-1.60;99.90
74822;DHT22;63353;48.702;8.884;2024-01-27T08:07:52;-1.40;99.90
74822;DHT22;63353;48.702;8.884;2024-01-27T08:10:18;-1.20;99.90
74822;DHT22;63353;48.702;8.884;2024-01-27T08:12:43;-1.10;99.90
74822;DHT22;63353;48.702;8.884;2024-01-27T08:15:09;-1.00;99.90
74822;DHT22;63353;48.702;8.884;2024-01-27T08:17:35;-0.90;99.90
74822;DHT22;63353;48.702;8.884;2024-01-27T08:20:03;-0.90;99.90
74822;DHT22;63353;48.702;8.884;2024-01-27T08:22:30;-0.70;99.90
74822;DHT22;63353;48.702;8.884;2024-01-27T08:24:56;-0.70;99.90
74822;DHT22;63353;48.702;8.884;2024-01-27T08:27:22;-0.60;99.90
74822;DHT22;63353;48.702;8.884;2024-01-27T08:29:49;-0.30;99.90
74822;DHT22;63353;48.702;8.884;2024-01-27T08:32:14;-0.20;99.90
74822;DHT22;63353;48.702;8.884;2024-01-27T08:34:40;-0.10;99.90
74822;DHT22;63353;48.702;8.884;2024-01-27T08:37:18;0.00;99.90
74822;DHT22;63353;48.702;8.884;2024-01-27T08:39:43;0.10;99.90
74822;DHT22;63353;48.702;8.884;2024-01-27T08:42:10;0.10;99.90
74822;DHT22;63353;48.702;8.884;2024-01-27T08:44:36;0.30;99.90
74822;DHT22;63353;48.702;8.884;2024-01-27T08:47:04;0.40;99.90
74822;DHT22;63353;48.702;8.884;2024-01-27T08:49:30;0.60;99.90
74822;DHT22;63353;48.702;8.884;2024-01-27T08:51:56;0.90;99.90
74822;DHT22;63353;48.702;8.884;2024-01-27T08:54:22;1.10;99.90
74822;DHT22;63353;48.702;8.884;2024-01-27T08:56:48;1.30;99.90
74822;DHT22;63353;48.702;8.884;2024-01-27T08:59:13;1.50;99.90
74822;DHT22;63353;48.702;8.884;2024-01-27T09:01:39;1.60;99.90
74822;DHT22;63353;48.702;8.884;2024-01-27T09:04:04;1.80;99.90
74822;DHT22;63353;48.702;8.884;2024-01-27T09:06:30;2.10;99.90
74822;DHT22;63353;48.702;8.884;2024-01-27T09:08:57;2.20;99.90
74822;DHT22;63353;48.702;8.884;2024-01-27T09:11:23;2.10;99.90
74822;DHT22;63353;48.702;8.884;2024-01-27T09:13:49;2.00;99.90
74822;DHT22;63353;48.702;8.884;2024-01-27T09:16:17;2.00;99.90
74822;DHT22;63353;48.702;8.884;2024-01-27T09:18:43;2.00;99.90
74822;DHT22;63353;48.702;8.884;2024-01-27T09:21:09;2.00;99.90
74822;DHT22;63353;48.702;8.884;2024-01-27T09:23:36;2.00;99.90
74822;DHT22;63353;48.702;8.884;2024-01-27T09:26:02;2.20;99.90
74822;DHT22;63353;48.702;8.884;2024-01-27T09:28:29;2.50;99.90
74822;DHT22;63353;48.702;8.884;2024-01-27T09:30:54;2.80;99.90
74822;DHT22;63353;48.702;8.884;2024-01-27T09:33:20;3.00;99.90
74822;DHT22;63353;48.702;8.884;2024-01-27T09:35:51;3.20;99.90
74822;DHT22;63353;48.702;8.884;2024-01-27T09:38:17;3.20;99.90
74822;DHT22;63353;48.702;8.884;2024-01-27T09:40:46;3.50;99.90
74822;DHT22;63353;48.702;8.884;2024-01-27T09:43:13;3.60;99.90
74822;DHT22;63353;48.702;8.884;2024-01-27T09:45:40;3.90;99.90
74822;DHT22;63353;48.702;8.884;2024-01-27T09:48:07;4.20;99.90
74822;DHT22;63353;48.702;8.884;2024-01-27T09:50:35;4.30;99.90
74822;DHT22;63353;48.702;8.884;2024-01-27T09:53:02;4.60;99.90
74822;DHT22;63353;48.702;8.884;2024-01-27T09:55:30;4.70;99.90
74822;DHT22;63353;48.702;8.884;2024-01-27T09:57:55;4.80;99.90
74822;DHT22;63353;48.702;8.884;2024-01-27T10:00:21;5.00;99.90
74822;DHT22;63353;48.702;8.884;2024-01-27T10:02:48;5.30;99.90
74822;DHT22;63353;48.702;8.884;2024-01-27T10:05:14;5.40;99.90
74822;DHT22;63353;48.702;8.884;2024-01-27T10:07:42;5.50;99.90
74822;DHT22;63353;48.702;8.884;2024-01-27T10:10:07;5.70;99.90
74822;DHT22;63353;48.702;8.884;2024-01-27T10:12:39;5.70;99.90
74822;DHT22;63353;48.702;8.884;2024-01-27T10:15:05;5.70;99.90
74822;DHT22;63353;48.702;8.884;2024-01-27T10:17:31;5.80;99.90
74822;DHT22;63353;48.702;8.884;2024-01-27T10:20:04;5.90;99.90
74822;DHT22;63353;48.702;8.884;2024-01-27T10:22:40;5.80;99.90
74822;DHT22;63353;48.702;8.884;2024-01-27T10:25:07;6.00;99.90
74822;DHT22;63353;48.702;8.884;2024-01-27T10:27:34;6.00;99.90
74822;DHT22;63353;48.702;8.884;2024-01-27T10:30:00;6.10;99.90
74822;DHT22;63353;48.702;8.884;2024-01-27T10:32:25;6.30;99.90
74822;DHT22;63353;48.702;8.884;2024-01-27T10:35:07;6.40;99.90
74822;DHT22;63353;48.702;8.884;2024-01-27T10:37:34;6.40;99.90
74822;DHT22;63353;48.702;8.884;2024-01-27T10:40:04;6.40;99.90
74822;DHT22;63353;48.702;8.884;2024-01-27T10:42:35;6.40;99.90
74822;DHT22;63353;48.702;8.884;2024-01-27T10:45:01;6.60;99.90
74822;DHT22;63353;48.702;8.884;2024-01-27T10:47:29;6.60;99.90
74822;DHT22;63353;48.702;8.884;2024-01-27T10:49:55;6.80;99.90
74822;DHT22;63353;48.702;8.884;2024-01-27T10:52:32;6.80;99.90
74822;DHT22;63353;48.702;8.884;2024-01-27T10:55:03;6.90;99.90
74822;DHT22;63353;48.702;8.884;2024-01-27T10:57:30;6.80;99.90
74822;DHT22;63353;48.702;8.884;2024-01-27T10:59:57;6.90;99.90
74822;DHT22;63353;48.702;8.884;2024-01-27T11:02:23;7.00;99.90
74822;DHT22;63353;48.702;8.884;2024-01-27T11:04:50;7.10;99.90
74822;DHT22;63353;48.702;8.884;2024-01-27T11:07:19;7.20;99.90
74822;DHT22;63353;48.702;8.884;2024-01-27T11:09:49;7.20;99.90
74822;DHT22;63353;48.702;8.884;2024-01-27T11:12:16;7.30;99.90
74822;DHT22;63353;48.702;8.884;2024-01-27T11:14:42;7.40;99.90
74822;DHT22;63353;48.702;8.884;2024-01-27T11:17:07;7.40;99.90
74822;DHT22;63353;48.702;8.884;2024-01-27T11:19:33;7.30;99.90
74822;DHT22;63353;48.702;8.884;2024-01-27T11:22:03;7.40;99.90
74822;DHT22;63353;48.702;8.884;2024-01-27T11:24:29;7.50;99.90
74822;DHT22;63353;48.702;8.884;2024-01-27T11:27:05;7.40;99.90
74822;DHT22;63353;48.702;8.884;2024-01-27T11:29:33;7.50;99.90
74822;DHT22;63353;48.702;8.884;2024-01-27T11:32:01;7.60;99.90
74822;DHT22;63353;48.702;8.884;2024-01-27T11:34:28;7.70;99.90
74822;DHT22;63353;48.702;8.884;2024-01-27T11:36:55;7.70;99.90
74822;DHT22;63353;48.702;8.884;2024-01-27T11:39:28;7.80;99.90
74822;DHT22;63353;48.702;8.884;2024-01-27T11:42:05;7.90;99.90
74822;DHT22;63353;48.702;8.884;2024-01-27T11:44:39;8.00;99.90
74822;DHT22;63353;48.702;8.884;2024-01-27T11:47:05;8.10;99.90
74822;DHT22;63353;48.702;8.884;2024-01-27T11:49:33;7.90;99.90
74822;DHT22;63353;48.702;8.884;2024-01-27T11:51:59;7.80;99.90
74822;DHT22;63353;48.702;8.884;2024-01-27T11:54:25;7.50;99.90
74822;DHT22;63353;48.702;8.884;2024-01-27T11:56:51;7.20;99.90
74822;DHT22;63353;48.702;8.884;2024-01-27T11:59:18;7.60;99.90
74822;DHT22;63353;48.702;8.884;2024-01-27T12:01:43;7.30;99.90
74822;DHT22;63353;48.702;8.884;2024-01-27T12:04:09;7.60;99.90
74822;DHT22;63353;48.702;8.884;2024-01-27T12:06:35;7.90;99.90
74822;DHT22;63353;48.702;8.884;2024-01-27T12:09:02;8.10;99.90
74822;DHT22;63353;48.702;8.884;2024-01-27T12:11:28;8.10;99.90
74822;DHT22;63353;48.702;8.884;2024-01-27T12:13:56;8.10;99.90
74822;DHT22;63353;48.702;8.884;2024-01-27T12:16:22;8.20;99.90
74822;DHT22;63353;48.702;8.884;2024-01-27T12:18:52;7.90;99.90
74822;DHT22;63353;48.702;8.884;2024-01-27T12:21:23;8.10;99.90
74822;DHT22;63353;48.702;8.884;2024-01-27T12:23:54;8.30;99.90
74822;DHT22;63353;48.702;8.884;2024-01-27T12:26:30;8.40;99.90
74822;DHT22;63353;48.702;8.884;2024-01-27T12:28:57;8.50;99.90
74822;DHT22;63353;48.702;8.884;2024-01-27T12:31:26;8.40;99.90
74822;DHT22;63353;48.702;8.884;2024-01-27T12:33:54;8.60;99.90
74822;DHT22;63353;48.702;8.884;2024-01-27T12:36:21;8.70;99.90
74822;DHT22;63353;48.702;8.884;2024-01-27T12:41:20;9.00;99.90
74822;DHT22;63353;48.702;8.884;2024-01-27T12:43:47;9.00;99.90
74822;DHT22;63353;48.702;8.884;2024-01-27T12:46:14;9.00;99.90
74822;DHT22;63353;48.702;8.884;2024-01-27T12:48:41;9.10;99.90
74822;DHT22;63353;48.702;8.884;2024-01-27T12:51:06;8.90;99.90
74822;DHT22;63353;48.702;8.884;2024-01-27T12:53:32;9.20;99.90
74822;DHT22;63353;48.702;8.884;2024-01-27T12:55:57;9.20;99.90
74822;DHT22;63353;48.702;8.884;2024-01-27T12:58:23;9.10;99.90
74822;DHT22;63353;48.702;8.884;2024-01-27T13:00:50;9.10;99.90
74822;DHT22;63353;48.702;8.884;2024-01-27T13:03:16;9.10;99.90
74822;DHT22;63353;48.702;8.884;2024-01-27T13:05:42;9.10;99.90
74822;DHT22;63353;48.702;8.884;2024-01-27T13:08:09;9.30;99.90
74822;DHT22;63353;48.702;8.884;2024-01-27T13:10:35;9.40;99.90
74822;DHT22;63353;48.702;8.884;2024-01-27T13:13:01;9.50;99.90
74822;DHT22;63353;48.702;8.884;2024-01-27T13:15:28;9.70;99.90
74822;DHT22;63353;48.702;8.884;2024-01-27T13:17:53;9.90;99.90
74822;DHT22;63353;48.702;8.884;2024-01-27T13:20:19;10.10;99.90
74822;DHT22;63353;48.702;8.884;2024-01-27T13:22:45;10.30;99.90
74822;DHT22;63353;48.702;8.884;2024-01-27T13:25:10;10.40;99.90
74822;DHT22;63353;48.702;8.884;2024-01-27T13:27:36;10.40;99.90
74822;DHT22;63353;48.702;8.884;2024-01-27T13:30:03;10.40;99.90
74822;DHT22;63353;48.702;8.884;2024-01-27T13:32:29;10.70;99.90
74822;DHT22;63353;48.702;8.884;2024-01-27T13:34:55;11.10;99.90
74822;DHT22;63353;48.702;8.884;2024-01-27T13:37:21;11.40;99.90
74822;DHT22;63353;48.702;8.884;2024-01-27T13:39:48;12.10;99.90
74822;DHT22;63353;48.702;8.884;2024-01-27T13:42:15;12.50;99.90
74822;DHT22;63353;48.702;8.884;2024-01-27T13:44:41;12.90;99.90
74822;DHT22;63353;48.702;8.884;2024-01-27T13:47:07;13.10;99.90
74822;DHT22;63353;48.702;8.884;2024-01-27T13:49:35;13.70;99.90
74822;DHT22;63353;48.702;8.884;2024-01-27T13:52:00;14.30;99.90
74822;DHT22;63353;48.702;8.884;2024-01-27T13:54:26;14.60;99.90
74822;DHT22;63353;48.702;8.884;2024-01-27T13:56:52;14.60;99.90
74822;DHT22;63353;48.702;8.884;2024-01-27T13:59:17;14.50;99.90
74822;DHT22;63353;48.702;8.884;2024-01-27T14:01:44;14.50;99.90
74822;DHT22;63353;48.702;8.884;2024-01-27T14:04:10;14.50;99.90
74822;DHT22;63353;48.702;8.884;2024-01-27T14:06:36;14.30;99.90
74822;DHT22;63353;48.702;8.884;2024-01-27T14:09:01;14.40;99.90
74822;DHT22;63353;48.702;8.884;2024-01-27T14:11:28;14.50;99.90
74822;DHT22;63353;48.702;8.884;2024-01-27T14:13:54;14.40;99.90
74822;DHT22;63353;48.702;8.884;2024-01-27T14:16:19;14.20;99.90
74822;DHT22;63353;48.702;8.884;2024-01-27T14:18:45;14.40;99.90
74822;DHT22;63353;48.702;8.884;2024-01-27T14:21:11;14.40;99.90
74822;DHT22;63353;48.702;8.884;2024-01-27T14:23:37;14.40;99.90
74822;DHT22;63353;48.702;8.884;2024-01-27T14:26:05;14.20;99.90
74822;DHT22;63353;48.702;8.884;2024-01-27T14:28:34;13.70;99.90
74822;DHT22;63353;48.702;8.884;2024-01-27T14:31:00;13.40;99.90
74822;DHT22;63353;48.702;8.884;2024-01-27T14:33:26;13.20;99.90
74822;DHT22;63353;48.702;8.884;2024-01-27T14:35:53;13.10;99.90
74822;DHT22;63353;48.702;8.884;2024-01-27T14:38:19;13.10;99.90
74822;DHT22;63353;48.702;8.884;2024-01-27T14:40:46;12.80;99.90
74822;DHT22;63353;48.702;8.884;2024-01-27T14:43:12;12.60;99.90
74822;DHT22;63353;48.702;8.884;2024-01-27T14:45:39;12.50;99.90
74822;DHT22;63353;48.702;8.884;2024-01-27T14:48:05;12.50;99.90
74822;DHT22;63353;48.702;8.884;2024-01-27T14:50:31;12.40;99.90
74822;DHT22;63353;48.702;8.884;2024-01-27T14:52:58;12.60;99.90
74822;DHT22;63353;48.702;8.884;2024-01-27T14:55:24;12.60;99.90
74822;DHT22;63353;48.702;8.884;2024-01-27T14:57:53;12.80;99.90
74822;DHT22;63353;48.702;8.884;2024-01-27T15:00:20;13.00;99.90
74822;DHT22;63353;48.702;8.884;2024-01-27T15:02:45;12.80;99.90
74822;DHT22;63353;48.702;8.884;2024-01-27T15:05:12;12.90;99.90
74822;DHT22;63353;48.702;8.884;2024-01-27T15:07:38;13.40;99.90
74822;DHT22;63353;48.702;8.884;2024-01-27T15:10:05;13.40;99.90
74822;DHT22;63353;48.702;8.884;2024-01-27T15:12:31;13.50;99.90
74822;DHT22;63353;48.702;8.884;2024-01-27T15:14:58;13.70;99.90
74822;DHT22;63353;48.702;8.884;2024-01-27T15:17:24;13.70;99.90
74822;DHT22;63353;48.702;8.884;2024-01-27T15:19:50;13.00;99.90
74822;DHT22;63353;48.702;8.884;2024-01-27T15:22:17;12.00;99.90
74822;DHT22;63353;48.702;8.884;2024-01-27T15:24:44;11.10;99.90
74822;DHT22;63353;48.702;8.884;2024-01-27T15:27:09;10.40;99.90
74822;DHT22;63353;48.702;8.884;2024-01-27T15:29:35;9.60;99.90
74822;DHT22;63353;48.702;8.884;2024-01-27T15:32:01;9.00;99.90
74822;DHT22;63353;48.702;8.884;2024-01-27T15:34:26;8.30;99.90